Pleasantville, IA

7:52 AM CDT on August 22, 2014 (GMT -0500)
Knoxville Municipal | Change Station
CLOSE
Current Station
Airport
Location: Knoxville,
Elevation: 928 ft
Nearby Weather Stations

Elev 928 ft 41.30 °N, 93.11 °W | Updated 17 minutes ago

Clear
Clear
73 °F
Feels Like 73 °F
N
6
Wind Variable Wind from SSE

Today
High -- | Low -- °F
--% Chance of Precip.
Yesterday
High -- | Low -- °F
Precip. -- in
6:29 AM 8:01 PM
Waning Crescent, 8% visible
Pressure 29.91 in
Visibility 10.0 miles
Clouds Clear
Dew Point 70 °F
Humidity 88%
Rainfall 0.01 in
Snow Depth Not available.
UV 1 out of 12
Pollen 6.70 out of 12
Air Quality Not available.
Flu Activity Not available.
METAR KOXV 221235Z AUTO 16005KT 10SM CLR 23/21 A2991 RMK AO2

More Conditions Fewer Conditions

Pressure 29.91 in
Visibility 10.0 miles
Clouds Clear
Dew Point 70 °F
Humidity 88%
Rainfall 0.01 in
Snow Depth Not available.
UV 1 out of 12
Pollen 6.70 out of 12
Air Quality Not available.
Flu Activity Not available.
METAR KOXV 221235Z AUTO 16005KT 10SM CLR 23/21 A2991 RMK AO2

More Conditions Fewer Conditions

10-Day Weather Forecast

Almanac

Astronomy

Aug. 22, 2014 Rise Set
Actual Time 6:29 AM CDT 8:01 PM CDT
Civil Twilight 6:00 AM CDT 8:30 PM CDT
Nautical Twilight 5:24 AM CDT 9:05 PM CDT
Astronomical Twilight 4:47 AM CDT 9:43 PM CDT
Moon 3:51 AM CDT 6:11 PM CDT
Length of Visible Light 14h 30m
Length of Day
13h 32m
Tomorrow will be 2m 33s shorter.
Waning Crescent, 8% of the Moon is Illuminated
Today
Waning Crescent
Aug 25
New
Sep 2
First Quarter
Sep 8
Full
Sep 15
Last Quarter

Today's Extremes

State Highs State Lows

Community

WunderPhotos

Upload Photos

1,746,158 photos uploaded!

WunderBlogs® & News

Nearby

Snow Depth

Station Depth Elevation
No new snow has been reported.

Earthquake Activity

City Distance Mag. Time & Date
No recent earthquake activity has been reported nearby.
Minimum magnitude displayed is 2.5.

Coastal Water Temperatures

Place Temperature
No Stations Reporting

Nearby Weather Stations